Time;durP1;ratioP1;P1;durP2;ratioP2;P2;SDS_P1;SDS_P2;PMS_P1;PMS_P2;Temp;Humidity;BMP_temperature;BMP_pressure;BME280_temperature;BME280_humidity;BME280_pressure;Samples;Min_cycle;Max_cycle;Signal;HPM_P1;HPM_P2
2023/01/25 03:01:29;;;;;;;31.20;26.43;;;2.70;99.90;;;;;;5567356;23;21022;-77
2023/01/25 03:03:56;;;;;;;29.80;26.57;;;2.70;99.90;;;;;;4981857;28;20194;-78
2023/01/25 03:06:23;;;;;;;32.40;26.97;;;2.70;99.90;;;;;;4962774;28;20229;-78
2023/01/25 03:08:50;;;;;;;31.10;27.73;;;2.80;99.90;;;;;;4966270;28;20504;-78
2023/01/25 03:11:17;;;;;;;29.80;26.60;;;2.70;99.90;;;;;;4957421;28;20763;-79
2023/01/25 03:13:44;;;;;;;29.93;26.73;;;2.70;99.90;;;;;;4970692;28;20501;-78
2023/01/25 03:16:13;;;;;;;28.80;25.50;;;2.70;99.90;;;;;;4954930;28;20249;-78
2023/01/25 03:18:43;;;;;;;29.73;26.43;;;2.70;99.90;;;;;;4952338;29;20583;-79
2023/01/25 03:21:12;;;;;;;29.73;26.27;;;2.70;99.90;;;;;;4966165;28;20694;-79
2023/01/25 03:23:39;;;;;;;29.00;25.87;;;2.70;99.90;;;;;;4966448;28;20563;-78
2023/01/25 03:26:09;;;;;;;29.00;26.07;;;2.80;99.90;;;;;;4951896;29;20461;-79
2023/01/25 03:28:40;;;;;;;32.20;27.43;;;2.80;99.90;;;;;;4953162;29;20667;-78
2023/01/25 03:31:08;;;;;;;29.23;26.13;;;2.70;99.90;;;;;;4952537;28;20222;-78
2023/01/25 03:33:35;;;;;;;30.83;26.50;;;2.70;99.90;;;;;;4954444;29;20220;-78
2023/01/25 03:36:05;;;;;;;30.77;26.73;;;2.70;99.90;;;;;;4953626;28;20195;-79
2023/01/25 03:38:33;;;;;;;29.63;26.43;;;2.70;99.90;;;;;;4970308;28;20226;-78
2023/01/25 03:41:00;;;;;;;29.47;26.27;;;2.70;99.90;;;;;;4951132;28;20506;-80
2023/01/25 03:43:28;;;;;;;29.13;26.03;;;2.70;99.90;;;;;;4963928;28;20738;-78
2023/01/25 03:45:57;;;;;;;30.00;26.70;;;2.70;99.90;;;;;;4967768;28;20580;-79
2023/01/25 03:48:25;;;;;;;30.40;27.13;;;2.80;99.90;;;;;;4953971;28;20752;-77
2023/01/25 03:50:54;;;;;;;27.90;24.90;;;2.80;99.90;;;;;;4965966;28;20266;-81
2023/01/25 03:53:28;;;;;;;27.17;24.37;;;2.80;99.90;;;;;;4968959;28;20298;-82
2023/01/25 03:55:58;;;;;;;31.67;27.70;;;2.80;99.90;;;;;;4944862;29;20737;-81
2023/01/25 03:58:26;;;;;;;30.87;26.40;;;2.80;99.90;;;;;;4950530;28;20631;-81
2023/01/25 04:00:56;;;;;;;33.73;27.53;;;2.70;99.90;;;;;;4947054;28;20227;-85
2023/01/25 04:03:24;;;;;;;31.13;27.43;;;2.70;99.90;;;;;;4945652;28;20207;-81
2023/01/25 04:05:51;;;;;;;30.00;26.80;;;2.70;99.90;;;;;;4952508;29;20217;-82
2023/01/25 04:08:18;;;;;;;28.50;25.23;;;2.80;99.90;;;;;;4954367;28;20203;-83
2023/01/25 04:10:52;;;;;;;30.90;26.50;;;2.70;99.90;;;;;;4956094;28;20251;-82
2023/01/25 04:13:20;;;;;;;29.80;26.70;;;2.80;99.90;;;;;;4973961;28;20257;-82
2023/01/25 04:15:48;;;;;;;28.57;25.77;;;2.70;99.90;;;;;;4973601;28;20220;-80
2023/01/25 04:18:26;;;;;;;29.07;26.07;;;2.70;99.90;;;;;;4956355;29;20667;-82
2023/01/25 04:20:54;;;;;;;29.10;26.10;;;2.70;99.90;;;;;;4942267;29;20238;-81
2023/01/25 04:23:21;;;;;;;27.50;24.70;;;2.80;99.90;;;;;;4954464;29;20207;-81
2023/01/25 04:25:54;;;;;;;29.93;26.80;;;2.80;99.90;;;;;;4969181;28;20203;-81
2023/01/25 04:28:21;;;;;;;32.67;27.33;;;2.80;99.90;;;;;;4946557;28;20198;-80
2023/01/25 04:30:47;;;;;;;28.80;25.70;;;2.90;99.90;;;;;;4967902;28;20260;-83
2023/01/25 04:33:15;;;;;;;28.50;25.50;;;2.80;99.90;;;;;;4971306;28;20203;-82
2023/01/25 04:35:43;;;;;;;29.10;26.20;;;2.80;99.90;;;;;;4954527;28;20675;-82
2023/01/25 04:38:10;;;;;;;31.10;27.10;;;2.80;99.90;;;;;;4974220;28;20195;-83
2023/01/25 04:40:40;;;;;;;29.43;26.23;;;2.80;99.90;;;;;;4973654;28;20199;-82
2023/01/25 04:43:10;;;;;;;29.83;26.73;;;2.80;99.90;;;;;;4973712;28;20218;-82
2023/01/25 04:45:37;;;;;;;29.53;26.63;;;2.80;99.90;;;;;;4957289;28;20285;-81
2023/01/25 04:48:10;;;;;;;30.63;27.23;;;2.70;99.90;;;;;;4974174;28;20206;-78
2023/01/25 04:50:42;;;;;;;30.47;27.17;;;2.70;99.90;;;;;;4954343;28;20250;-78
2023/01/25 04:53:12;;;;;;;27.77;25.03;;;2.70;99.90;;;;;;4952937;28;20281;-79
2023/01/25 04:55:39;;;;;;;29.73;26.77;;;2.70;99.90;;;;;;4964874;28;20453;-78
2023/01/25 04:58:09;;;;;;;29.20;26.17;;;2.70;99.90;;;;;;4972258;28;20722;-79
2023/01/25 05:00:36;;;;;;;31.30;27.83;;;2.60;99.90;;;;;;4955824;28;20198;-79
2023/01/25 05:03:03;;;;;;;31.40;28.03;;;2.60;99.90;;;;;;4972298;28;20242;-78
2023/01/25 05:05:30;;;;;;;30.87;26.63;;;2.60;99.90;;;;;;4972891;28;20232;-78
2023/01/25 05:07:59;;;;;;;30.87;27.27;;;2.70;99.90;;;;;;4954124;28;20203;-79
2023/01/25 05:10:27;;;;;;;34.40;27.23;;;2.60;99.90;;;;;;4947806;28;20210;-78
2023/01/25 05:13:14;;;;;;;29.00;26.10;;;2.60;99.90;;;;;;4956428;29;20205;-79
2023/01/25 05:15:41;;;;;;;28.57;25.47;;;2.60;99.90;;;;;;4943728;28;20204;-79
2023/01/25 05:18:08;;;;;;;29.33;26.13;;;2.70;99.90;;;;;;4965896;28;20191;-79
2023/01/25 05:20:35;;;;;;;28.97;25.77;;;2.70;99.90;;;;;;4947817;28;20286;-78
2023/01/25 05:23:02;;;;;;;28.67;25.80;;;2.70;99.90;;;;;;4958057;28;20658;-79
2023/01/25 05:28:20;;;;;;;27.13;24.33;;;2.70;99.90;;;;;;4955393;28;20211;-79
2023/01/25 05:31:06;;;;;;;27.90;25.17;;;2.60;99.90;;;;;;4956418;28;20233;-78
2023/01/25 05:33:35;;;;;;;26.90;24.17;;;2.60;99.90;;;;;;4972341;28;20211;-80
2023/01/25 05:36:01;;;;;;;26.17;23.50;;;2.60;99.90;;;;;;4952791;28;20209;-79
2023/01/25 05:38:33;;;;;;;25.10;22.50;;;2.60;99.90;;;;;;4968914;28;20199;-78
2023/01/25 05:41:00;;;;;;;23.93;21.73;;;2.70;99.90;;;;;;4955641;28;20302;-79
2023/01/25 05:43:29;;;;;;;25.97;23.50;;;2.70;99.90;;;;;;4956149;28;20195;-79
2023/01/25 05:45:57;;;;;;;26.83;24.03;;;2.70;99.90;;;;;;4955194;28;20695;-79
2023/01/25 05:48:24;;;;;;;24.70;22.13;;;2.80;99.90;;;;;;4971815;28;20203;-79
2023/01/25 05:50:52;;;;;;;23.40;21.23;;;2.80;99.90;;;;;;4947530;28;20277;-78
2023/01/25 05:53:25;;;;;;;25.07;22.67;;;2.80;99.90;;;;;;4953276;29;20211;-79
2023/01/25 05:55:52;;;;;;;26.67;24.00;;;2.80;99.90;;;;;;4957550;28;20329;-79
2023/01/25 05:58:19;;;;;;;26.40;23.90;;;2.80;99.90;;;;;;4970423;28;20207;-78
2023/01/25 06:00:48;;;;;;;28.43;25.33;;;2.70;99.90;;;;;;4953714;28;20230;-78
2023/01/25 06:03:26;;;;;;;27.30;24.60;;;2.70;99.90;;;;;;4971809;28;20590;-78
2023/01/25 06:05:55;;;;;;;30.73;26.87;;;2.70;99.90;;;;;;4956908;28;20202;-77
2023/01/25 06:08:22;;;;;;;28.57;25.73;;;2.70;99.90;;;;;;4952153;29;20265;-79
2023/01/25 06:10:51;;;;;;;29.10;26.17;;;2.70;99.90;;;;;;4942912;28;20282;-78
2023/01/25 06:13:19;;;;;;;29.03;26.07;;;2.70;99.90;;;;;;4963075;28;20210;-79
2023/01/25 06:15:53;;;;;;;28.67;25.27;;;2.70;99.90;;;;;;4956430;28;20199;-78
2023/01/25 06:18:39;;;;;;;30.63;27.20;;;2.70;99.90;;;;;;4951230;29;20230;-79
2023/01/25 06:21:26;;;;;;;29.17;26.10;;;2.70;99.90;;;;;;4928558;29;20655;-79
2023/01/25 06:23:53;;;;;;;28.50;25.57;;;2.70;99.90;;;;;;4963865;28;20261;-79
2023/01/25 06:26:20;;;;;;;29.97;26.97;;;2.70;99.90;;;;;;4954933;28;20203;-78
2023/01/25 06:28:47;;;;;;;31.73;27.40;;;2.70;99.90;;;;;;4953161;28;20207;-79
2023/01/25 06:31:17;;;;;;;29.17;26.13;;;2.70;99.90;;;;;;4967319;28;20750;-79
2023/01/25 06:33:47;;;;;;;29.67;26.67;;;2.60;99.90;;;;;;4944212;28;20198;-78
2023/01/25 06:36:17;;;;;;;28.97;26.07;;;2.60;99.90;;;;;;4962097;28;20219;-78
2023/01/25 06:38:47;;;;;;;29.37;26.17;;;2.60;99.90;;;;;;4957465;28;20202;-78
2023/01/25 06:41:14;;;;;;;27.33;24.70;;;2.70;99.90;;;;;;4969682;28;20210;-78
2023/01/25 06:43:41;;;;;;;28.43;25.53;;;2.70;99.90;;;;;;4956447;29;20218;-79
2023/01/25 06:46:10;;;;;;;27.43;24.73;;;2.70;99.90;;;;;;4957022;28;20568;-79
2023/01/25 06:48:39;;;;;;;29.53;26.53;;;2.70;99.90;;;;;;4972411;28;20266;-79
2023/01/25 06:51:10;;;;;;;30.23;27.13;;;2.70;99.90;;;;;;4957073;28;20607;-80
2023/01/25 06:53:40;;;;;;;28.37;25.47;;;2.70;99.90;;;;;;4958261;28;20209;-80
2023/01/25 06:56:08;;;;;;;27.07;24.47;;;2.80;99.90;;;;;;4956922;28;20414;-79
2023/01/25 06:58:35;;;;;;;25.23;22.83;;;2.70;99.90;;;;;;4957255;28;20199;-79
2023/01/25 07:01:04;;;;;;;24.07;21.63;;;2.70;99.90;;;;;;4970130;28;20227;-78
2023/01/25 07:03:31;;;;;;;24.33;21.90;;;2.70;99.90;;;;;;4956325;29;20261;-79
2023/01/25 07:06:01;;;;;;;22.23;20.23;;;2.70;99.90;;;;;;4955179;28;20210;-79
2023/01/25 07:08:28;;;;;;;22.97;20.77;;;2.70;99.90;;;;;;4952950;29;20253;-79
2023/01/25 07:10:56;;;;;;;24.00;21.50;;;2.80;99.90;;;;;;4953061;28;20227;-78
2023/01/25 07:13:23;;;;;;;24.57;22.23;;;2.70;99.90;;;;;;4953543;28;20199;-78
2023/01/25 07:15:54;;;;;;;24.40;21.97;;;2.80;99.90;;;;;;4954176;28;20203;-78
2023/01/25 07:18:21;;;;;;;25.43;22.63;;;2.80;99.90;;;;;;4970378;28;20569;-78
2023/01/25 07:20:48;;;;;;;24.60;22.20;;;2.70;99.90;;;;;;4970963;28;20237;-79
2023/01/25 07:23:16;;;;;;;24.10;21.80;;;2.80;99.90;;;;;;4956374;28;20572;-79
2023/01/25 07:25:47;;;;;;;22.73;20.43;;;2.80;99.90;;;;;;4956622;28;20738;-79
2023/01/25 07:28:14;;;;;;;23.37;21.13;;;2.80;99.90;;;;;;4952807;28;20203;-78
2023/01/25 07:30:41;;;;;;;22.67;20.57;;;2.80;99.90;;;;;;4949478;28;20250;-80
2023/01/25 07:33:08;;;;;;;22.67;20.47;;;2.80;99.90;;;;;;4954440;29;20213;-78
2023/01/25 07:35:35;;;;;;;24.47;22.07;;;2.90;99.90;;;;;;4946968;28;20261;-79
2023/01/25 07:38:02;;;;;;;22.40;20.10;;;2.80;99.90;;;;;;4955469;28;20463;-78
2023/01/25 07:40:31;;;;;;;22.53;20.47;;;2.90;99.90;;;;;;4950996;29;20250;-79
2023/01/25 07:42:58;;;;;;;21.27;19.17;;;2.80;99.90;;;;;;4948559;28;20202;-79
2023/01/25 07:45:29;;;;;;;21.30;19.20;;;2.80;99.90;;;;;;4968247;28;20222;-79
2023/01/25 07:47:57;;;;;;;20.80;18.90;;;2.80;99.90;;;;;;4955162;29;20630;-78
2023/01/25 07:50:25;;;;;;;20.77;18.87;;;2.80;99.90;;;;;;4954445;28;20195;-83
2023/01/25 07:52:52;;;;;;;21.40;19.53;;;2.80;99.90;;;;;;4973472;28;20214;-81
2023/01/25 07:55:19;;;;;;;19.67;17.87;;;2.80;99.90;;;;;;4956171;28;20252;-81
2023/01/25 07:57:47;;;;;;;20.30;18.50;;;2.80;99.90;;;;;;4968419;28;20259;-82
2023/01/25 08:00:14;;;;;;;19.93;18.13;;;2.80;99.90;;;;;;4970038;28;20423;-82
2023/01/25 08:02:42;;;;;;;20.73;18.87;;;2.90;99.90;;;;;;4955783;29;20230;-81
2023/01/25 08:05:09;;;;;;;19.90;18.03;;;2.90;99.90;;;;;;4952247;29;20198;-81
2023/01/25 08:07:36;;;;;;;19.73;18.00;;;2.90;99.90;;;;;;4948331;28;20199;-81
2023/01/25 08:10:03;;;;;;;20.13;18.13;;;2.90;99.90;;;;;;4946449;28;20199;-82
2023/01/25 08:12:31;;;;;;;20.23;18.37;;;2.90;99.90;;;;;;4973169;28;20257;-81
2023/01/25 08:14:59;;;;;;;19.93;17.90;;;2.90;99.90;;;;;;4966202;28;20194;-81
2023/01/25 08:17:30;;;;;;;20.10;18.23;;;2.90;99.90;;;;;;4962439;29;20488;-79
2023/01/25 08:19:57;;;;;;;19.07;17.37;;;2.90;99.90;;;;;;4963923;28;20195;-82
2023/01/25 08:22:24;;;;;;;19.03;17.43;;;2.90;99.90;;;;;;4968266;29;20270;-82
2023/01/25 08:24:50;;;;;;;20.23;18.33;;;2.90;99.90;;;;;;4961243;28;20257;-80
2023/01/25 08:27:17;;;;;;;18.70;17.03;;;3.00;99.90;;;;;;4977053;28;20211;-81
2023/01/25 08:29:44;;;;;;;19.50;17.70;;;3.00;99.90;;;;;;4964880;28;20199;-82
2023/01/25 08:32:12;;;;;;;18.97;17.20;;;3.00;99.90;;;;;;4980486;28;20535;-81
2023/01/25 08:34:40;;;;;;;19.50;17.83;;;3.00;99.90;;;;;;4955535;29;20199;-81
2023/01/25 08:37:06;;;;;;;19.23;17.50;;;3.00;99.90;;;;;;4964054;28;20213;-81
2023/01/25 08:39:33;;;;;;;19.37;17.67;;;3.00;99.90;;;;;;4964538;28;20230;-82
2023/01/25 08:42:00;;;;;;;19.80;18.00;;;3.00;99.90;;;;;;4954882;28;20597;-81
2023/01/25 08:44:27;;;;;;;19.47;17.77;;;3.00;99.90;;;;;;4951213;29;20643;-82
2023/01/25 08:46:53;;;;;;;19.47;17.67;;;3.10;99.90;;;;;;4957347;29;20561;-82
2023/01/25 08:49:22;;;;;;;20.73;18.60;;;3.10;99.90;;;;;;4973526;28;20269;-80
2023/01/25 08:51:49;;;;;;;19.73;18.07;;;3.10;99.90;;;;;;4954731;28;20215;-80
2023/01/25 08:54:16;;;;;;;20.17;18.43;;;3.10;99.90;;;;;;4957361;28;20191;-81
2023/01/25 08:56:43;;;;;;;20.07;18.20;;;3.10;99.90;;;;;;4945874;29;20299;-81
2023/01/25 08:59:11;;;;;;;19.90;18.10;;;3.20;99.90;;;;;;4970753;28;20199;-80
2023/01/25 09:01:38;;;;;;;19.80;17.93;;;3.20;99.90;;;;;;4971650;28;20652;-81
2023/01/25 09:04:05;;;;;;;19.63;17.83;;;3.20;99.90;;;;;;4958472;28;20222;-81
2023/01/25 09:06:33;;;;;;;20.33;18.47;;;3.30;99.90;;;;;;4954499;28;20202;-81
2023/01/25 09:09:00;;;;;;;20.47;18.57;;;3.30;99.90;;;;;;4968330;28;20206;-80
2023/01/25 09:11:27;;;;;;;20.20;18.37;;;3.20;99.90;;;;;;4938765;28;20282;-81
2023/01/25 09:13:54;;;;;;;20.63;18.47;;;3.20;99.90;;;;;;4969887;28;20671;-81
2023/01/25 09:16:27;;;;;;;20.53;18.67;;;3.30;99.90;;;;;;4971327;28;20671;-81
2023/01/25 09:18:54;;;;;;;19.10;17.33;;;3.20;99.90;;;;;;4957901;28;20285;-81
2023/01/25 09:21:21;;;;;;;19.80;18.10;;;3.20;99.90;;;;;;4970679;28;20238;-79
2023/01/25 09:23:53;;;;;;;19.90;18.10;;;3.20;99.90;;;;;;4957963;29;20202;-82
2023/01/25 09:26:20;;;;;;;20.10;18.27;;;3.20;99.90;;;;;;4954513;28;20632;-80
2023/01/25 09:28:48;;;;;;;20.23;18.30;;;3.10;99.90;;;;;;4957681;28;20203;-81
2023/01/25 09:31:16;;;;;;;19.77;17.87;;;3.10;99.90;;;;;;4957206;28;20440;-82
2023/01/25 09:34:07;;;;;;;20.40;18.50;;;3.20;99.90;;;;;;4974902;28;20222;-80
2023/01/25 09:36:34;;;;;;;20.13;18.37;;;3.20;99.90;;;;;;4954425;28;20694;-81
2023/01/25 09:39:02;;;;;;;19.60;17.90;;;3.20;99.90;;;;;;4974894;28;20237;-80
2023/01/25 09:42:02;;;;;;;18.17;16.60;;;3.20;99.90;;;;;;4955631;28;20229;-79
2023/01/25 09:44:41;;;;;;;19.00;17.23;;;3.30;99.90;;;;;;4959067;28;20207;-82
2023/01/25 09:47:20;;;;;;;19.80;17.90;;;3.30;99.90;;;;;;4946620;29;20210;-81
2023/01/25 09:50:01;;;;;;;20.40;18.63;;;3.20;99.90;;;;;;4967924;28;20200;-80
2023/01/25 09:53:04;;;;;;;21.67;19.60;;;3.20;99.90;;;;;;4951375;29;20210;-80
2023/01/25 09:55:34;;;;;;;20.00;18.17;;;3.30;99.90;;;;;;4956210;29;20199;-83
2023/01/25 09:58:02;;;;;;;20.83;18.80;;;3.30;99.90;;;;;;4959441;28;20206;-82
2023/01/25 10:00:33;;;;;;;20.23;18.43;;;3.30;99.90;;;;;;4953876;29;20198;-82
2023/01/25 10:03:05;;;;;;;20.43;18.63;;;3.30;99.90;;;;;;4959135;28;20194;-80
2023/01/25 10:05:40;;;;;;;20.57;18.67;;;3.30;99.90;;;;;;4954541;29;20253;-82
2023/01/25 10:08:14;;;;;;;20.67;18.63;;;3.30;99.90;;;;;;4974396;28;20198;-83
2023/01/25 10:10:43;;;;;;;20.77;18.87;;;3.30;99.90;;;;;;4958578;28;20206;-82
2023/01/25 10:13:12;;;;;;;21.57;19.57;;;3.30;99.90;;;;;;4958340;28;20222;-81
2023/01/25 10:15:43;;;;;;;21.80;19.60;;;3.40;99.90;;;;;;4974685;28;20206;-81
2023/01/25 10:18:20;;;;;;;20.50;18.70;;;3.30;99.90;;;;;;4960104;28;20230;-81
2023/01/25 10:20:53;;;;;;;20.57;18.63;;;3.30;99.90;;;;;;4957551;29;20214;-82
2023/01/25 10:23:41;;;;;;;20.73;18.90;;;3.30;99.90;;;;;;4973626;28;20202;-81
2023/01/25 10:26:16;;;;;;;21.47;19.37;;;3.30;99.90;;;;;;4938555;28;20211;-82
2023/01/25 10:28:50;;;;;;;20.77;18.67;;;3.40;99.90;;;;;;4955519;28;20646;-86
2023/01/25 10:31:28;;;;;;;20.97;19.07;;;3.40;99.90;;;;;;4952442;28;20226;-80
2023/01/25 10:33:56;;;;;;;19.73;17.93;;;3.30;99.90;;;;;;4971053;28;20269;-80
2023/01/25 10:36:29;;;;;;;21.20;19.20;;;3.40;99.90;;;;;;4954939;29;20293;-80
2023/01/25 10:38:59;;;;;;;19.57;17.90;;;3.40;99.90;;;;;;4971022;28;20203;-80
2023/01/25 10:41:34;;;;;;;21.30;19.17;;;3.40;99.90;;;;;;4953591;28;20277;-80
2023/01/25 10:46:47;;;;;;;20.13;18.13;;;3.40;99.90;;;;;;4953176;28;20209;-80
2023/01/25 10:49:23;;;;;;;20.87;18.77;;;3.40;99.90;;;;;;4954778;28;20624;-80
2023/01/25 10:51:50;;;;;;;20.10;18.13;;;3.40;99.90;;;;;;4955592;28;20273;-80
2023/01/25 10:54:17;;;;;;;20.57;18.67;;;3.50;99.90;;;;;;4971285;28;20262;-80
2023/01/25 10:56:46;;;;;;;19.77;17.97;;;3.50;99.90;;;;;;4955945;28;20195;-81
2023/01/25 10:59:19;;;;;;;20.27;18.47;;;3.50;99.90;;;;;;4955938;28;20285;-77
2023/01/25 11:01:46;;;;;;;20.67;18.87;;;3.40;99.90;;;;;;4972858;28;20222;-78
2023/01/25 11:04:34;;;;;;;20.00;18.20;;;3.40;99.90;;;;;;4971642;28;20254;-77
2023/01/25 11:07:03;;;;;;;20.60;18.80;;;3.30;99.90;;;;;;4961421;28;20217;-80
2023/01/25 11:09:36;;;;;;;21.20;19.10;;;3.30;99.90;;;;;;4955814;29;20199;-77
2023/01/25 11:12:17;;;;;;;21.50;19.47;;;3.40;99.90;;;;;;4971761;28;20281;-77
2023/01/25 11:14:44;;;;;;;22.87;20.47;;;3.40;99.90;;;;;;4957728;28;20204;-77
2023/01/25 11:17:24;;;;;;;22.17;19.97;;;3.40;99.90;;;;;;4957610;28;20729;-77
2023/01/25 11:20:15;;;;;;;24.57;21.37;;;3.30;99.90;;;;;;4958522;28;20234;-77
2023/01/25 11:22:50;;;;;;;23.37;20.67;;;3.30;99.90;;;;;;4963273;28;20215;-77
2023/01/25 11:25:29;;;;;;;22.47;20.27;;;3.20;99.90;;;;;;4953899;29;20212;-78
2023/01/25 11:30:50;;;;;;;23.20;20.80;;;3.30;99.90;;;;;;5095855;28;21096;-76
2023/01/25 11:33:18;;;;;;;21.67;19.57;;;3.20;99.90;;;;;;5081931;28;20195;-77
2023/01/25 11:36:10;;;;;;;22.97;20.63;;;3.20;99.90;;;;;;5081317;28;20245;-77
2023/01/25 11:38:39;;;;;;;21.93;19.73;;;3.20;99.90;;;;;;5079008;28;20312;-76
2023/01/25 11:41:12;;;;;;;23.00;20.80;;;3.10;99.90;;;;;;5080165;28;20214;-76
2023/01/25 11:43:57;;;;;;;23.07;20.67;;;3.10;99.90;;;;;;5082308;28;20217;-76
2023/01/25 11:46:34;;;;;;;23.07;20.70;;;3.10;99.90;;;;;;5080175;28;20222;-77
2023/01/25 11:49:21;;;;;;;22.23;19.93;;;3.00;99.90;;;;;;5080066;28;20266;-76
2023/01/25 11:51:54;;;;;;;22.60;20.33;;;3.10;99.90;;;;;;5071574;28;20275;-76
2023/01/25 11:54:42;;;;;;;21.20;19.13;;;3.20;99.90;;;;;;5076276;28;20252;-76
2023/01/25 11:57:34;;;;;;;22.37;20.17;;;3.20;99.90;;;;;;5075107;28;20549;-75
2023/01/25 12:00:13;;;;;;;21.97;19.93;;;3.30;99.90;;;;;;5082538;28;20208;-76
2023/01/25 12:03:24;;;;;;;21.60;19.60;;;3.30;99.90;;;;;;5089527;28;20227;-76
2023/01/25 12:05:59;;;;;;;22.07;19.77;;;3.30;99.90;;;;;;5072576;28;20203;-76
2023/01/25 12:08:39;;;;;;;21.37;19.33;;;3.20;99.90;;;;;;5074786;28;20206;-75
2023/01/25 12:11:13;;;;;;;21.67;19.60;;;3.30;99.90;;;;;;5077826;28;20301;-75
2023/01/25 12:13:49;;;;;;;22.17;19.97;;;3.30;99.90;;;;;;5075963;28;20224;-75
2023/01/25 12:16:33;;;;;;;21.70;19.57;;;3.20;99.90;;;;;;5079459;28;20195;-75
2023/01/25 12:19:29;;;;;;;21.77;19.67;;;3.20;99.90;;;;;;5082257;28;20248;-76
2023/01/25 12:22:22;;;;;;;22.57;20.37;;;3.30;99.90;;;;;;5079603;28;20279;-76
2023/01/25 12:24:57;;;;;;;22.10;19.90;;;3.30;99.90;;;;;;5066748;28;20191;-75
2023/01/25 12:27:39;;;;;;;21.57;19.57;;;3.30;99.90;;;;;;5079755;28;20189;-76
2023/01/25 12:30:16;;;;;;;22.90;20.33;;;3.30;99.90;;;;;;5076928;28;20241;-76
2023/01/25 12:32:48;;;;;;;21.70;19.50;;;3.20;99.90;;;;;;5074591;28;20217;-77
2023/01/25 12:35:25;;;;;;;21.73;19.60;;;3.20;99.90;;;;;;5078052;28;20198;-76
2023/01/25 12:37:56;;;;;;;20.83;18.73;;;3.20;99.90;;;;;;5080218;28;20202;-76
2023/01/25 12:40:41;;;;;;;22.93;20.53;;;3.20;99.90;;;;;;5076889;28;20248;-76
2023/01/25 12:43:14;;;;;;;22.10;19.83;;;3.20;99.90;;;;;;5067811;28;20670;-76
2023/01/25 12:45:44;;;;;;;22.97;20.67;;;3.20;99.90;;;;;;5069269;28;20199;-76
2023/01/25 12:48:17;;;;;;;22.57;20.40;;;3.20;99.90;;;;;;5067267;28;20206;-76
2023/01/25 12:50:51;;;;;;;22.53;20.33;;;3.20;99.90;;;;;;5068495;28;20266;-76
2023/01/25 12:53:21;;;;;;;21.77;19.57;;;3.20;99.90;;;;;;5065936;28;20256;-76
2023/01/25 12:55:49;;;;;;;21.67;19.57;;;3.20;99.90;;;;;;5065374;28;20202;-76
2023/01/25 12:58:21;;;;;;;21.63;19.17;;;3.20;99.90;;;;;;5066287;28;20634;-76
2023/01/25 13:00:57;;;;;;;22.47;19.60;;;3.20;99.90;;;;;;5064391;28;20220;-76
2023/01/25 13:03:31;;;;;;;20.80;18.70;;;3.30;99.90;;;;;;5070591;28;20218;-76
2023/01/25 13:06:09;;;;;;;20.63;18.73;;;3.30;99.90;;;;;;5058835;28;20199;-77
2023/01/25 13:08:45;;;;;;;21.20;19.13;;;3.30;99.90;;;;;;5070215;28;20199;-76
2023/01/25 13:11:16;;;;;;;22.40;20.20;;;3.30;99.90;;;;;;5066135;28;20237;-76
2023/01/25 13:13:43;;;;;;;21.30;19.20;;;3.20;99.90;;;;;;5062741;28;20253;-76
2023/01/25 13:16:35;;;;;;;20.97;19.07;;;3.20;99.90;;;;;;5063415;28;20237;-77
2023/01/25 13:19:01;;;;;;;21.37;19.27;;;3.20;99.90;;;;;;5064396;28;20667;-76
2023/01/25 13:21:44;;;;;;;21.43;19.23;;;3.20;99.90;;;;;;5055169;28;20244;-77
2023/01/25 13:24:20;;;;;;;21.10;18.93;;;3.30;99.90;;;;;;5065697;28;20514;-76
2023/01/25 13:26:49;;;;;;;21.20;19.07;;;3.20;99.90;;;;;;5067882;28;20198;-76
2023/01/25 13:29:53;;;;;;;20.93;18.87;;;3.20;99.90;;;;;;5066136;28;20682;-76
2023/01/25 13:32:55;;;;;;;21.10;18.90;;;3.20;99.90;;;;;;5063917;28;20226;-77
2023/01/25 13:35:27;;;;;;;20.80;18.83;;;3.30;99.90;;;;;;5063616;28;20207;-77
2023/01/25 13:38:01;;;;;;;20.57;18.73;;;3.20;99.90;;;;;;5070472;28;20195;-79
2023/01/25 13:40:32;;;;;;;21.40;19.17;;;3.30;99.90;;;;;;5051119;28;20253;-80
2023/01/25 13:43:00;;;;;;;22.35;20.30;;;3.20;99.90;;;;;;5065076;28;20440;-77
2023/01/25 13:45:30;;;;;;;20.77;18.83;;;3.20;99.90;;;;;;5056346;28;20198;-76
2023/01/25 13:48:04;;;;;;;20.40;18.50;;;3.30;99.90;;;;;;5060279;28;20200;-76
2023/01/25 13:50:35;;;;;;;20.33;18.50;;;3.30;99.90;;;;;;5049826;28;20639;-76
2023/01/25 13:53:05;;;;;;;21.53;19.53;;;3.40;99.90;;;;;;5064887;28;20229;-76
2023/01/25 13:55:39;;;;;;;21.50;19.50;;;3.40;99.90;;;;;;5064352;28;20263;-79
2023/01/25 13:58:10;;;;;;;20.77;18.67;;;3.40;99.90;;;;;;5063565;28;20203;-81
2023/01/25 14:00:37;;;;;;;21.23;19.13;;;3.30;99.90;;;;;;5056875;28;20200;-79
2023/01/25 14:03:06;;;;;;;20.80;18.63;;;3.40;99.90;;;;;;5069342;28;20238;-78
2023/01/25 14:05:33;;;;;;;23.17;20.77;;;3.30;99.90;;;;;;5063264;28;20286;-80
2023/01/25 14:08:00;;;;;;;21.37;19.27;;;3.30;99.90;;;;;;5051830;28;20207;-78
2023/01/25 14:10:28;;;;;;;21.37;19.33;;;3.30;99.90;;;;;;5053754;28;20210;-79
2023/01/25 14:13:00;;;;;;;21.03;18.93;;;3.20;99.90;;;;;;5065804;28;20226;-79
2023/01/25 14:15:28;;;;;;;21.03;18.87;;;3.30;99.90;;;;;;5064551;28;20289;-78
2023/01/25 14:18:10;;;;;;;20.37;18.40;;;3.20;99.90;;;;;;5065887;28;20198;-79
2023/01/25 14:20:37;;;;;;;20.13;18.27;;;3.30;99.90;;;;;;5056982;28;20202;-79
2023/01/25 14:23:04;;;;;;;21.27;19.20;;;3.20;99.90;;;;;;5064029;28;20416;-79
2023/01/25 14:25:33;;;;;;;20.63;18.80;;;3.20;99.90;;;;;;5066569;28;20198;-79
2023/01/25 14:28:02;;;;;;;21.83;19.63;;;3.20;99.90;;;;;;5062296;28;20602;-79
2023/01/25 14:30:32;;;;;;;20.13;18.23;;;3.20;99.90;;;;;;5063469;28;20218;-79
2023/01/25 14:33:01;;;;;;;20.07;18.07;;;3.20;99.90;;;;;;5067945;28;20251;-79
2023/01/25 14:35:37;;;;;;;19.43;17.73;;;3.20;99.90;;;;;;5058319;28;20690;-79
2023/01/25 14:38:21;;;;;;;18.93;17.13;;;3.20;99.90;;;;;;5065781;28;20723;-79
2023/01/25 14:40:50;;;;;;;19.40;17.60;;;3.10;99.90;;;;;;5063009;28;20223;-79
2023/01/25 14:43:18;;;;;;;21.60;19.47;;;3.20;99.90;;;;;;5063518;28;20252;-80
2023/01/25 14:45:45;;;;;;;20.73;18.83;;;3.20;99.90;;;;;;5051176;28;20676;-80
2023/01/25 14:48:33;;;;;;;22.80;20.60;;;3.20;99.90;;;;;;5054371;28;20271;-79
2023/01/25 14:51:05;;;;;;;19.97;17.90;;;3.10;99.90;;;;;;5058009;28;20260;-82
2023/01/25 14:53:32;;;;;;;20.60;18.57;;;3.10;99.90;;;;;;5073799;28;20203;-82
2023/01/25 14:56:01;;;;;;;20.37;18.50;;;3.10;99.90;;;;;;5068966;28;20198;-81
2023/01/25 14:58:30;;;;;;;22.77;20.33;;;3.10;99.90;;;;;;5056768;28;20245;-81
2023/01/25 15:00:59;;;;;;;20.97;19.00;;;3.10;99.90;;;;;;5061213;28;20632;-81
2023/01/25 15:03:28;;;;;;;21.53;19.73;;;3.10;99.90;;;;;;5066949;28;20191;-80
2023/01/25 15:05:57;;;;;;;21.63;19.53;;;3.10;99.90;;;;;;5060935;28;20248;-82
2023/01/25 15:08:29;;;;;;;20.10;18.33;;;3.00;99.90;;;;;;5068273;28;20202;-82
2023/01/25 15:10:57;;;;;;;21.07;18.97;;;3.00;99.90;;;;;;5061385;28;20214;-81
2023/01/25 15:13:27;;;;;;;21.67;19.43;;;3.00;99.90;;;;;;5069159;28;20195;-80
2023/01/25 15:15:56;;;;;;;20.90;19.03;;;2.90;99.90;;;;;;5061543;28;20721;-81
2023/01/25 15:18:46;;;;;;;21.33;19.23;;;3.00;99.90;;;;;;5064648;28;20671;-80
2023/01/25 15:21:15;;;;;;;20.50;18.50;;;3.00;99.90;;;;;;5061808;28;20221;-80
2023/01/25 15:23:43;;;;;;;21.13;19.23;;;3.00;99.90;;;;;;5064498;28;20641;-81
2023/01/25 15:26:17;;;;;;;20.80;18.80;;;3.00;99.90;;;;;;5062845;28;20199;-81
2023/01/25 15:28:46;;;;;;;21.10;19.20;;;3.00;99.90;;;;;;5063575;28;20227;-81
2023/01/25 15:31:17;;;;;;;21.63;19.53;;;3.00;99.90;;;;;;5061243;28;20227;-80
2023/01/25 15:33:44;;;;;;;21.40;19.40;;;2.90;99.90;;;;;;5061150;28;20234;-80
2023/01/25 15:36:11;;;;;;;22.50;20.40;;;3.00;99.90;;;;;;5055212;28;20542;-81
2023/01/25 15:38:38;;;;;;;24.73;22.20;;;3.00;99.90;;;;;;5064613;28;20281;-81
2023/01/25 15:41:05;;;;;;;24.93;22.47;;;2.90;99.90;;;;;;5062148;28;20597;-80
2023/01/25 15:43:32;;;;;;;23.83;21.57;;;2.80;99.90;;;;;;5066447;28;20207;-79
2023/01/25 15:46:01;;;;;;;22.20;20.00;;;2.80;99.90;;;;;;5063122;28;20226;-81
2023/01/25 15:48:30;;;;;;;22.00;19.80;;;2.80;99.90;;;;;;5060952;28;20194;-81
2023/01/25 15:50:59;;;;;;;21.47;19.37;;;2.80;99.90;;;;;;5063118;28;20226;-81
2023/01/25 15:53:26;;;;;;;21.77;19.77;;;2.80;99.90;;;;;;5051297;28;20282;-77
2023/01/25 15:55:58;;;;;;;22.07;20.07;;;2.80;99.90;;;;;;5060115;28;20298;-77
2023/01/25 15:58:29;;;;;;;21.80;19.80;;;2.80;99.90;;;;;;5049580;28;20713;-75
2023/01/25 16:00:56;;;;;;;23.60;21.07;;;2.80;99.90;;;;;;5056218;28;20614;-76
2023/01/25 16:03:24;;;;;;;23.83;21.40;;;2.80;99.90;;;;;;5063416;28;20207;-77
2023/01/25 16:05:56;;;;;;;23.50;21.23;;;2.80;99.90;;;;;;5059582;28;20199;-77